Flight Track Log - Related Links

Times and Time Zones

All times are in EDT time to prevent confusion due to time zone crossing. See the FSR411 flight status page for this flight to view local times or setup timezone preferences in your user account.

Time Position Orientation Groundspeed Altitude Reporting Facility
EDT Latitude Longitude Course Direction KTS MPH feet Rate Location/Type
Sun 04:48:47 PM 40.4467 -88.9219 175° South 222 255 2,500  Level Kansas City Center
Sun 04:49:48 PM 40.3969 -88.9164 175° South 194 223 5,800 2,952 Climbing Kansas City Center
Sun 04:50:51 PM 40.3453 -88.8683 145° Southeast 219 252 8,600 2,661 Climbing Kansas City Center
Sun 04:51:52 PM 40.2806 -88.8072 144° Southeast 273 314 11,300 2,951 Climbing Kansas City Center
Sun 04:52:53 PM 40.1878 -88.7181 144° Southeast 335 386 14,600 3,072 Climbing Kansas City Center
Sun 04:53:57 PM 40.0994 -88.6347 144° Southeast 378 435 17,700 3,072 Climbing Kansas City Center
Sun 04:54:58 PM 40.0083 -88.5511 145° Southeast 394 453 21,000 2,496 Climbing Kansas City Center
Sun 04:56:02 PM 39.9167 -88.4633 144° Southeast 402 463 22,900 960 Climbing Kansas City Center
Sun 04:57:03 PM 39.8189 -88.3700 144° Southeast 427 491 23,000 541 Climbing Kansas City Center
Sun 04:58:04 PM 39.7197 -88.2775 144° Southeast 436 502 24,000 984 Climbing Kansas City Center
Sun 04:59:05 PM 39.6133 -88.1792 145° Southeast 425 489 25,000 695 Climbing Kansas City Center
Sun 04:59:39 PM 39.5478 -88.1233 147° Southeast 426 490 25,100 1,263 Climbing Indianapolis Center
Sun 05:00:40 PM 39.4456 -88.0297 145° Southeast 445 512 27,000 2,195 Climbing Indianapolis Center
Sun 05:01:42 PM 39.3506 -87.9428 145° Southeast 443 510 29,600 1,984 Climbing Indianapolis Center
Sun 05:02:44 PM 39.2519 -87.8519 144° Southeast 439 505 31,100 1,415 Climbing Indianapolis Center
Sun 05:03:45 PM 39.1492 -87.7589 145° Southeast 441 507 32,500 1,317 Climbing Indianapolis Center
Sun 05:04:47 PM 39.0436 -87.6639 145° Southeast 455 524 33,800 1,597 Climbing Indianapolis Center
Sun 05:05:49 PM 38.9178 -87.5503 145° Southeast 457 526 35,800 1,790 Climbing Indianapolis Center
Sun 05:06:51 PM 38.8150 -87.4583 145° Southeast 456 525 37,500 1,512 Climbing Indianapolis Center
Sun 05:07:52 PM 38.7169 -87.3694 145° Southeast 440 506 38,900 1,220 Climbing Indianapolis Center
Sun 05:08:54 PM 38.6175 -87.2803 145° Southeast 438 504 40,000 968 Climbing Indianapolis Center
Sun 05:09:56 PM 38.5200 -87.1947 146° Southeast 430 495 40,900 488 Climbing Indianapolis Center
Sun 05:10:57 PM 38.4231 -87.1103 146° Southeast 430 495 41,000 49 Climbing Indianapolis Center
Sun 05:11:59 PM 38.3194 -87.0186 145° Southeast 437 503 41,000  Level Indianapolis Center
Sun 05:13:01 PM 38.1922 -86.9072 145° Southeast 451 519 41,000  Level Indianapolis Center
Sun 05:14:03 PM 38.0911 -86.8231 147° Southeast 458 527 41,000  Level Indianapolis Center
Sun 05:15:04 PM 37.9867 -86.7369 147° Southeast 452 520 41,000  Level Indianapolis Center
Sun 05:16:06 PM 37.8817 -86.6511 147° Southeast 452 520 41,000  Level Indianapolis Center
Sun 05:16:31 PM 37.8400 -86.6158 146° Southeast 451 519 41,000  Level Indianapolis Center
Sun 05:17:32 PM 37.7161 -86.5150 147° Southeast 451 519 41,000  Level Indianapolis Center
Sun 05:18:34 PM 37.6114 -86.4289 147° Southeast 450 518 41,000  Level Indianapolis Center
Sun 05:19:36 PM 37.5069 -86.3431 147° Southeast 447 514 41,000  Level Indianapolis Center
Sun 05:20:38 PM 37.4011 -86.2586 148° Southeast 446 513 41,000  Level Indianapolis Center
Sun 05:21:27 PM 37.3131 -86.1869 147° Southeast 446 513 41,000  Level Memphis Center
Sun 05:22:29 PM 37.2086 -86.1019 147° Southeast 446 513 41,000  Level Memphis Center
Sun 05:23:31 PM 37.1014 -86.0158 147° Southeast 446 513 41,000  Level Memphis Center
Sun 05:24:33 PM 36.9942 -85.9300 147° Southeast 447 514 41,000  Level Memphis Center
Sun 05:25:35 PM 36.8889 -85.8464 148° Southeast 447 514 41,000  Level Memphis Center
Sun 05:26:37 PM 36.7811 -85.7600 147° Southeast 448 516 41,000 -259 Level Memphis Center
Sun 05:28:17 PM 36.6050 -85.6239 148° Southeast 447 514 40,300 -618 Descending Atlanta Center
Sun 05:28:53 PM 36.5375 -85.5667 146° Southeast 455 524 39,600 -1,237 Descending Indianapolis Center
Sun 05:29:54 PM 36.4264 -85.4803 148° Southeast 464 534 38,300 -1,317 Descending Indianapolis Center
Sun 05:30:56 PM 36.3189 -85.3956 148° Southeast 464 534 36,900 -1,452 Descending Indianapolis Center
Sun 05:31:58 PM 36.2114 -85.3131 148° Southeast 462 532 35,300 -1,742 Descending Indianapolis Center
Sun 05:33:00 PM 36.0839 -85.2133 148° Southeast 456 525 33,300 -1,113 Descending Indianapolis Center
Sun 05:34:02 PM 35.9850 -85.1364 148° Southeast 453 521 33,000 -350 Descending Indianapolis Center
Sun 05:35:17 PM 35.8417 -85.0250 148° Southeast 452 520 32,500 -889 Descending Atlanta Center
Sun 05:36:17 PM 35.7358 -84.9444 148° Southeast 447 514 31,000 -1,400 Descending Atlanta Center
Sun 05:37:17 PM 35.6403 -84.8692 147° Southeast 453 521 29,700 -1,400 Descending Atlanta Center
Sun 05:38:17 PM 35.5325 -84.7892 149° Southeast 443 510 28,200 -1,550 Descending Atlanta Center
Sun 05:39:17 PM 35.4244 -84.7064 148° Southeast 448 516 26,600 -1,700 Descending Atlanta Center
Sun 05:40:17 PM 35.3183 -84.6242 148° Southeast 448 516 24,800 -1,350 Descending Atlanta Center
Sun 05:41:17 PM 35.2164 -84.5447 148° Southeast 448 516 23,900 -900 Descending Atlanta Center
Sun 05:42:17 PM 35.1125 -84.4653 148° Southeast 448 516 23,000 -450 Descending Atlanta Center
Sun 05:43:17 PM 35.0147 -84.3914 148° Southeast 441 507 23,000 -600 Level Atlanta Center
Sun 05:44:17 PM 34.9147 -84.3150 148° Southeast 430 495 21,800 -2,400 Descending Atlanta Center
Sun 05:45:17 PM 34.8147 -84.2386 148° Southeast 425 489 18,200 -3,700 Descending Atlanta Center
Sun 05:46:17 PM 34.7167 -84.1753 152° Southeast 420 483 14,400 -3,550 Descending Atlanta Center
Sun 05:47:17 PM 34.6250 -84.1119 150° Southeast 399 459 11,100 -2,500 Descending Atlanta Center
Sun 05:48:17 PM 34.5436 -84.0514 148° Southeast 373 429 9,400 -1,900 Descending Atlanta Center
Sun 05:49:17 PM 34.4747 -83.9933 145° Southeast 335 386 7,300 -1,650 Descending Atlanta Center
Sun 05:50:17 PM 34.4078 -83.9431 148° Southeast 304 350 6,100 -950 Descending Atlanta Center
Sun 05:51:17 PM 34.3306 -83.8803 146° Southeast 298 343 5,400 -700 Descending Atlanta Center

Login

Don't have an account? Register now (free) for customized features, flight alerts, and more!